Time;durP1;ratioP1;P1;durP2;ratioP2;P2;SDS_P1;SDS_P2;PMS_P1;PMS_P2;Temp;Humidity;BMP_temperature;BMP_pressure;BME280_temperature;BME280_humidity;BME280_pressure;Samples;Min_cycle;Max_cycle;Signal;HPM_P1;HPM_P2
2023/02/13 00:01:34;;;;;;;98.03;47.35;;;77.40;2227.20;;;;;;5035723;28;19909;-76
2023/02/13 00:04:00;;;;;;;;;;;77.40;2227.20;;;;;;5036387;28;20032;-76
2023/02/13 00:06:26;;;;;;;104.13;46.08;;;77.30;2227.20;;;;;;5053610;28;19919;-76
2023/02/13 00:08:51;;;;;;;;;;;77.20;2227.20;;;;;;5036031;28;20021;-77
2023/02/13 00:11:17;;;;;;;101.97;49.00;;;77.30;2227.20;;;;;;5053588;28;19908;-76
2023/02/13 00:13:42;;;;;;;;;;;77.00;2227.20;;;;;;5036090;28;20036;-77
2023/02/13 00:16:09;;;;;;;79.82;41.08;;;76.80;2227.20;;;;;;5035582;28;19958;-77
2023/02/13 00:18:37;;;;;;;91.18;40.80;;;52.00;2227.20;;;;;;5035726;28;20180;-77
2023/02/13 00:21:08;;;;;;;92.15;44.55;;;76.80;2227.20;;;;;;5035676;28;20039;-78
2023/02/13 00:23:36;;;;;;;84.45;40.58;;;77.00;2227.20;;;;;;5035455;28;20470;-77
2023/02/13 00:26:06;;;;;;;87.45;41.00;;;77.10;2227.20;;;;;;5032940;28;20036;-76
2023/02/13 00:28:32;;;;;;;80.78;40.60;;;77.10;2227.20;;;;;;5035358;28;20079;-77
2023/02/13 00:31:02;;;;;;;;;;;77.20;2227.20;;;;;;5035979;28;20490;-78
2023/02/13 00:33:27;;;;;;;95.50;46.13;;;77.30;2227.20;;;;;;5053339;28;19935;-77
2023/02/13 00:36:00;;;;;;;;;;;77.20;2227.20;;;;;;5035778;28;20024;-77
2023/02/13 00:38:29;;;;;;;86.97;37.90;;;52.00;2227.20;;;;;;5047973;28;19905;-77
2023/02/13 00:40:54;;;;;;;79.47;38.60;;;52.00;2227.20;;;;;;5052400;28;20048;-77
2023/02/13 00:43:20;;;;;;;;;;;52.10;2227.20;;;;;;5035607;28;20033;-78
2023/02/13 00:45:45;;;;;;;86.50;38.38;;;76.80;2227.20;;;;;;5053222;28;19908;-77
2023/02/13 00:48:11;;;;;;;;;;;52.00;2227.20;;;;;;5053683;28;20028;-77
2023/02/13 00:50:36;;;;;;;78.82;35.78;;;52.00;2227.20;;;;;;5053535;28;19908;-77
2023/02/13 00:53:02;;;;;;;;;;;52.10;2227.20;;;;;;5032778;28;20081;-77
2023/02/13 00:55:28;;;;;;;93.65;41.88;;;52.10;2227.20;;;;;;5035091;28;19904;-74
2023/02/13 00:57:53;;;;;;;;;;;76.90;2227.20;;;;;;5036364;28;20513;-77
2023/02/13 01:00:19;;;;;;;86.75;41.70;;;77.00;2227.20;;;;;;5039821;28;20429;-77
2023/02/13 01:02:45;;;;;;;;;;;77.00;2227.20;;;;;;5039160;28;20052;-78
2023/02/13 01:05:10;;;;;;;65.85;32.42;;;77.20;2227.20;;;;;;5037850;28;19904;-78
2023/02/13 01:07:36;;;;;;;;;;;77.20;2227.20;;;;;;5038870;28;20037;-77
2023/02/13 01:10:02;;;;;;;66.10;32.05;;;77.20;2227.20;;;;;;5055028;28;20426;-78
2023/02/13 01:12:27;;;;;;;;;;;77.30;2227.20;;;;;;5037478;28;20033;-78
2023/02/13 01:14:53;;;;;;;57.92;28.17;;;77.30;2227.20;;;;;;5040294;28;19991;-77
2023/02/13 01:17:18;;;;;;;;;;;77.20;2227.20;;;;;;5041134;28;20037;-78
2023/02/13 01:19:44;;;;;;;66.75;30.00;;;77.30;2227.20;;;;;;5042052;28;19916;-77
2023/02/13 01:22:10;;;;;;;;;;;77.30;2227.20;;;;;;5041000;28;20033;-78
2023/02/13 01:24:35;;;;;;;54.50;27.25;;;77.20;2227.20;;;;;;5058499;28;19908;-77
2023/02/13 01:27:01;;;;;;;;;;;77.20;2227.20;;;;;;5041439;28;20036;-78
2023/02/13 01:29:27;;;;;;;59.63;26.95;;;77.00;2227.20;;;;;;5039965;28;19959;-78
2023/02/13 01:31:53;;;;;;;61.75;30.35;;;77.00;2227.20;;;;;;5041224;28;20025;-77
2023/02/13 01:34:18;;;;;;;;;;;77.10;2227.20;;;;;;5042052;28;20099;-78
2023/02/13 01:36:44;;;;;;;56.78;27.20;;;77.20;2227.20;;;;;;5041310;28;19970;-77
2023/02/13 01:39:10;;;;;;;;;;;77.20;2227.20;;;;;;5041833;28;20482;-77
2023/02/13 01:41:36;;;;;;;54.78;27.15;;;77.30;2227.20;;;;;;5039752;28;19921;-78
2023/02/13 01:44:02;;;;;;;;;;;77.20;2227.20;;;;;;5040255;28;20024;-78
2023/02/13 01:46:42;;;;;;;56.50;26.67;;;77.30;2227.20;;;;;;5040822;28;20259;-78
2023/02/13 01:49:22;;;;;;;57.55;27.80;;;77.40;2227.20;;;;;;5041028;28;20022;-78
2023/02/13 01:51:50;;;;;;;57.08;28.42;;;77.40;2227.20;;;;;;5040776;28;20032;-77
2023/02/13 01:54:22;;;;;;;58.72;27.65;;;77.40;2227.20;;;;;;5038239;28;20029;-76
2023/02/13 01:56:50;;;;;;;58.10;28.75;;;77.20;2227.20;;;;;;5037975;28;20064;-77
2023/02/13 01:59:23;;;;;;;58.58;28.60;;;77.20;2227.20;;;;;;5037956;28;20031;-77
2023/02/13 02:01:49;;;;;;;49.30;27.67;;;77.20;2227.20;;;;;;5037974;28;20029;-76
2023/02/13 02:04:27;;;;;;;52.38;28.20;;;77.20;2227.20;;;;;;5037662;28;20124;-77
2023/02/13 02:06:56;;;;;;;67.38;30.30;;;77.30;2227.20;;;;;;5055491;28;20037;-77
2023/02/13 02:09:38;;;;;;;56.60;31.17;;;77.30;2227.20;;;;;;5037384;28;20025;-76
2023/02/13 02:12:25;;;;;;;58.78;28.58;;;77.30;2227.20;;;;;;5037651;28;20055;-77
2023/02/13 02:14:54;;;;;;;42.60;20.60;;;77.20;2227.20;;;;;;5037643;28;20021;-77
2023/02/13 02:17:22;;;;;;;50.70;25.48;;;77.00;2227.20;;;;;;5037506;28;20037;-77
2023/02/13 02:19:52;;;;;;;51.90;25.52;;;76.90;2227.20;;;;;;5037439;28;20044;-77
2023/02/13 02:22:38;;;;;;;51.85;26.10;;;76.80;2227.20;;;;;;5037505;28;20028;-76
2023/02/13 02:25:24;;;;;;;51.00;26.00;;;76.90;2227.20;;;;;;5036807;28;20383;-76
2023/02/13 02:28:23;;;;;;;53.90;25.20;;;76.90;2227.20;;;;;;5054783;28;20029;-77
2023/02/13 02:31:02;;;;;;;53.83;25.77;;;76.90;2227.20;;;;;;5055183;28;20052;-77
2023/02/13 02:33:43;;;;;;;55.13;27.17;;;77.10;2227.20;;;;;;5037107;28;20033;-77
2023/02/13 02:36:21;;;;;;;47.75;25.02;;;77.20;2227.20;;;;;;5033940;28;20434;-77
2023/02/13 02:39:05;;;;;;;52.60;27.90;;;77.30;2227.20;;;;;;5036921;28;20021;-78
2023/02/13 02:41:40;;;;;;;57.83;28.95;;;77.30;2227.20;;;;;;5036745;28;20133;-77
2023/02/13 02:44:23;;;;;;;56.30;27.08;;;77.30;2227.20;;;;;;5054920;28;20067;-77
2023/02/13 02:50:13;;;;;;;62.53;29.05;;;77.30;2227.20;;;;;;5055293;28;20052;-77
2023/02/13 02:52:57;;;;;;;56.88;28.60;;;77.30;2227.20;;;;;;5037013;28;20170;-77
2023/02/13 02:55:40;;;;;;;55.22;26.77;;;77.20;2227.20;;;;;;5036857;28;20025;-77
2023/02/13 03:06:43;;;;;;;;;;;77.40;2227.20;;;;;;5055131;28;20072;-77
2023/02/13 03:14:43;;;;;;;67.07;31.17;;;77.40;2227.20;;;;;;5054431;28;20031;-77
2023/02/13 03:23:16;;;;;;;45.13;22.70;;;77.40;2227.20;;;;;;5054238;28;20122;-77
2023/02/13 03:26:13;;;;;;;48.10;22.73;;;77.40;2227.20;;;;;;5036008;28;20040;-76
2023/02/13 03:32:18;;;;;;;69.18;37.25;;;77.40;2227.20;;;;;;5054250;28;20039;-77
2023/02/13 03:37:53;;;;;;;67.18;34.05;;;77.30;2227.20;;;;;;5053621;28;20443;-77
2023/02/13 03:40:28;;;;;;;69.65;33.28;;;77.30;2227.20;;;;;;5035685;28;20037;-77
2023/02/13 03:43:09;;;;;;;68.47;32.97;;;77.20;2227.20;;;;;;5035937;28;20488;-77
2023/02/13 03:45:55;;;;;;;90.13;43.10;;;77.20;2227.20;;;;;;5053368;28;20072;-77
2023/02/13 03:51:42;;;;;;;69.53;29.90;;;77.00;2227.20;;;;;;5053834;28;20081;-77
2023/02/13 03:54:19;;;;;;;62.03;30.23;;;76.80;2227.20;;;;;;5036046;28;20032;-77
2023/02/13 03:59:33;;;;;;;;;;;51.90;2227.20;;;;;;5054219;28;20462;-77
2023/02/13 04:02:01;;;;;;;53.95;23.48;;;51.60;2227.20;;;;;;5053427;28;20007;-77
2023/02/13 04:04:57;;;;;;;66.72;30.50;;;51.40;2227.20;;;;;;5053484;28;20025;-77
2023/02/13 04:07:31;;;;;;;79.05;29.30;;;51.20;2227.20;;;;;;5035637;28;20040;-77
2023/02/13 04:10:08;;;;;;;68.32;29.58;;;51.20;2227.20;;;;;;5053021;28;20021;-77
2023/02/13 04:12:40;;;;;;;;;;;51.20;2227.20;;;;;;5034711;28;20041;-77
2023/02/13 04:15:18;;;;;;;61.92;30.17;;;26.50;2201.60;;;;;;5035411;28;19911;-76
2023/02/13 04:17:50;;;;;;;63.45;29.05;;;26.50;2201.60;;;;;;5035489;28;20451;-76
2023/02/13 04:20:16;;;;;;;67.00;30.20;;;51.20;2227.20;;;;;;5035494;28;20033;-77
2023/02/13 04:22:42;;;;;;;;;;;51.30;2227.20;;;;;;5035394;28;20040;-76
2023/02/13 04:25:10;;;;;;;70.05;30.10;;;51.40;2227.20;;;;;;5035173;28;19928;-76
2023/02/13 04:27:35;;;;;;;74.15;31.50;;;51.50;2227.20;;;;;;5035196;28;20040;-77
2023/02/13 04:30:01;;;;;;;;;;;51.70;2227.20;;;;;;5035639;28;20367;-78
2023/02/13 04:32:27;;;;;;;97.45;41.67;;;51.70;2227.20;;;;;;5035021;28;19909;-77
2023/02/13 04:34:53;;;;;;;79.85;34.13;;;51.80;2227.20;;;;;;5035191;28;20017;-76
2023/02/13 04:37:18;;;;;;;;;;;51.70;2227.20;;;;;;5035665;28;20048;-77
2023/02/13 04:39:44;;;;;;;73.72;32.53;;;51.60;2227.20;;;;;;5034760;28;19912;-77
2023/02/13 04:42:10;;;;;;;;;;;51.50;2227.20;;;;;;5035501;28;20112;-76
2023/02/13 04:44:35;;;;;;;64.97;31.45;;;51.40;2227.20;;;;;;5034808;28;19904;-77
2023/02/13 04:47:01;;;;;;;;;;;51.50;2227.20;;;;;;5052955;28;20036;-76
2023/02/13 04:49:26;;;;;;;72.88;33.63;;;51.50;2227.20;;;;;;5034990;28;20318;-77
2023/02/13 04:51:52;;;;;;;;;;;51.50;2227.20;;;;;;5053173;28;20032;-77
2023/02/13 04:54:18;;;;;;;71.82;31.83;;;51.40;2227.20;;;;;;5034812;28;19911;-76
2023/02/13 04:56:43;;;;;;;;;;;51.40;2227.20;;;;;;5035258;28;20171;-78
2023/02/13 04:59:09;;;;;;;60.10;27.70;;;51.30;2227.20;;;;;;5052708;28;19912;-78
2023/02/13 05:01:35;;;;;;;;;;;51.40;2227.20;;;;;;5035390;28;20025;-76
2023/02/13 05:04:01;;;;;;;60.25;28.50;;;51.20;2227.20;;;;;;5034900;28;19907;-77
2023/02/13 05:06:26;;;;;;;67.78;32.33;;;51.20;2227.20;;;;;;5034791;28;20069;-78
2023/02/13 05:08:52;;;;;;;;;;;26.50;2201.60;;;;;;5035246;28;20073;-76
2023/02/13 05:11:18;;;;;;;82.60;31.27;;;51.20;2227.20;;;;;;5052501;28;19935;-76
2023/02/13 05:13:43;;;;;;;;;;;51.20;2227.20;;;;;;5035144;28;20364;-76
2023/02/13 05:16:09;;;;;;;64.10;28.15;;;51.30;2227.20;;;;;;5034654;28;19959;-76
2023/02/13 05:18:34;;;;;;;;;;;51.20;2227.20;;;;;;5052856;28;20026;-76
2023/02/13 05:23:44;;;;;;;67.43;31.23;;;26.50;2201.60;;;;;;5052719;28;20036;-76
2023/02/13 05:26:09;;;;;;;;;;;51.20;2227.20;;;;;;5035089;28;20421;-77
2023/02/13 05:31:19;;;;;;;75.20;33.72;;;51.20;2227.20;;;;;;5052582;28;20079;-76
2023/02/13 05:33:45;;;;;;;;;;;26.50;2201.60;;;;;;5034966;28;20425;-76
2023/02/13 05:36:10;;;;;;;75.15;33.70;;;26.50;2201.60;;;;;;5034508;28;19904;-77
2023/02/13 05:38:36;;;;;;;;;;;26.40;2201.60;;;;;;5052618;28;20021;-76
2023/02/13 05:41:02;;;;;;;96.78;36.28;;;26.50;2201.60;;;;;;5033901;28;20004;-76
2023/02/13 05:43:28;;;;;;;;;;;26.40;2201.60;;;;;;5034724;28;20051;-76
2023/02/13 05:46:04;;;;;;;72.60;33.08;;;26.50;2201.60;;;;;;5034235;28;19957;-75
2023/02/13 05:48:30;;;;;;;66.88;29.35;;;26.50;2201.60;;;;;;5034139;28;20047;-75
2023/02/13 05:50:56;;;;;;;70.03;32.70;;;26.50;2201.60;;;;;;5052050;28;20036;-77
2023/02/13 05:53:21;;;;;;;;;;;26.30;2201.60;;;;;;5034763;28;20435;-76
2023/02/13 05:55:51;;;;;;;85.30;33.95;;;26.40;2201.60;;;;;;5034220;28;19905;-76
2023/02/13 05:58:20;;;;;;;77.65;37.03;;;26.50;2201.60;;;;;;5034180;28;20497;-77
2023/02/13 06:00:47;;;;;;;89.60;37.42;;;26.50;2201.60;;;;;;5037548;28;20122;-77
2023/02/13 06:03:13;;;;;;;85.10;40.90;;;26.50;2201.60;;;;;;5055747;28;20025;-76
2023/02/13 06:05:38;;;;;;;;;;;51.30;2227.20;;;;;;5056205;28;20033;-77
2023/02/13 06:08:04;;;;;;;108.28;49.25;;;51.40;2227.20;;;;;;5037750;28;20352;-77
2023/02/13 06:10:30;;;;;;;;;;;51.40;2227.20;;;;;;5037972;28;20033;-76
2023/02/13 06:12:55;;;;;;;93.80;42.90;;;51.50;2227.20;;;;;;5037647;28;20358;-77
2023/02/13 06:15:21;;;;;;;;;;;51.40;2227.20;;;;;;5038064;28;20098;-77
2023/02/13 06:17:46;;;;;;;91.30;40.60;;;51.50;2227.20;;;;;;5037458;28;20054;-76
2023/02/13 06:20:12;;;;;;;;;;;51.40;2227.20;;;;;;5043329;28;20037;-76
2023/02/13 06:22:38;;;;;;;92.78;40.47;;;51.40;2227.20;;;;;;5049347;28;19908;-76
2023/02/13 06:25:03;;;;;;;;;;;51.40;2227.20;;;;;;5048651;28;20032;-75
2023/02/13 06:27:30;;;;;;;74.53;36.67;;;51.50;2227.20;;;;;;5050971;28;20305;-76
2023/02/13 06:29:56;;;;;;;83.78;37.33;;;51.50;2227.20;;;;;;5053361;28;20017;-75
2023/02/13 06:32:21;;;;;;;;;;;51.50;2227.20;;;;;;5042173;28;20028;-76
2023/02/13 06:34:47;;;;;;;80.03;35.47;;;51.60;2227.20;;;;;;5049750;28;19908;-76
2023/02/13 06:37:12;;;;;;;;;;;51.60;2227.20;;;;;;5049082;28;20481;-76
2023/02/13 06:39:38;;;;;;;93.50;37.97;;;51.60;2227.20;;;;;;5047211;28;19909;-76
2023/02/13 06:42:03;;;;;;;;;;;51.70;2227.20;;;;;;5046513;28;20064;-76
2023/02/13 06:44:29;;;;;;;83.93;36.35;;;51.70;2227.20;;;;;;5050178;28;19905;-76
2023/02/13 06:46:55;;;;;;;;;;;51.80;2227.20;;;;;;5049624;28;20041;-76
2023/02/13 06:49:20;;;;;;;88.57;38.85;;;51.80;2227.20;;;;;;5043091;28;19975;-75
2023/02/13 06:51:46;;;;;;;;;;;51.90;2227.20;;;;;;5050553;28;20112;-75
2023/02/13 06:54:12;;;;;;;82.25;39.03;;;52.00;2227.20;;;;;;5048733;28;19904;-75
2023/02/13 06:56:37;;;;;;;;;;;52.10;2227.20;;;;;;5026263;28;20037;-76
2023/02/13 06:59:03;;;;;;;92.28;39.00;;;52.10;2227.20;;;;;;5034777;28;20383;-76
2023/02/13 07:01:28;;;;;;;;;;;76.80;2227.20;;;;;;5044538;28;20386;-76
2023/02/13 07:03:54;;;;;;;83.13;36.72;;;76.90;2227.20;;;;;;5042694;28;20407;-75
2023/02/13 07:06:20;;;;;;;;;;;76.90;2227.20;;;;;;5046594;28;20043;-76
2023/02/13 07:08:46;;;;;;;76.00;38.53;;;77.00;2227.20;;;;;;5045822;28;19904;-75
2023/02/13 07:11:19;;;;;;;78.75;39.90;;;77.10;2227.20;;;;;;5050121;28;20033;-76
2023/02/13 07:13:44;;;;;;;81.25;41.47;;;77.20;2227.20;;;;;;5039411;28;20494;-74
2023/02/13 07:16:10;;;;;;;;;;;77.30;2227.20;;;;;;5055055;28;20060;-75
2023/02/13 07:18:37;;;;;;;77.63;37.00;;;77.40;2227.20;;;;;;5042233;28;20384;-75
2023/02/13 07:21:03;;;;;;;76.25;38.95;;;77.50;2227.20;;;;;;5043217;28;20025;-76
2023/02/13 07:23:28;;;;;;;;;;;77.50;2227.20;;;;;;5035949;28;20044;-74
2023/02/13 07:25:54;;;;;;;76.80;37.28;;;77.40;2227.20;;;;;;5031431;28;19928;-76
2023/02/13 07:28:19;;;;;;;;;;;77.50;2227.20;;;;;;5058891;28;20020;-73
2023/02/13 07:30:45;;;;;;;79.38;38.13;;;77.60;2227.20;;;;;;5053725;28;20278;-74
2023/02/13 07:33:10;;;;;;;;;;;102.40;2227.20;;;;;;5059592;28;20050;-74
2023/02/13 07:35:37;;;;;;;80.60;40.10;;;102.50;2227.20;;;;;;5055571;28;20368;-77
2023/02/13 07:38:03;;;;;;;100.78;47.05;;;102.60;2227.20;;;;;;5022527;28;20360;-75
2023/02/13 07:40:29;;;;;;;110.35;49.67;;;102.60;2227.20;;;;;;5057075;28;20047;-75
2023/02/13 07:42:55;;;;;;;;;;;102.60;2227.20;;;;;;5064809;28;20452;-74
2023/02/13 07:45:20;;;;;;;100.10;48.60;;;102.70;2227.20;;;;;;5066129;28;19908;-75
2023/02/13 07:47:46;;;;;;;;;;;102.90;2227.20;;;;;;5060263;28;20033;-77
2023/02/13 07:50:12;;;;;;;97.13;49.15;;;103.00;2227.20;;;;;;5062791;28;20246;-76
2023/02/13 07:52:38;;;;;;;97.00;49.95;;;103.10;2227.20;;;;;;5062440;28;20086;-76
2023/02/13 07:55:04;;;;;;;;;;;103.20;2227.20;;;;;;5028881;28;20478;-76
2023/02/13 07:57:30;;;;;;;85.68;40.65;;;103.20;2227.20;;;;;;5050245;28;20255;-76
2023/02/13 07:59:57;;;;;;;76.78;41.72;;;103.20;2227.20;;;;;;5060679;28;20056;-77
2023/02/13 08:02:23;;;;;;;79.88;41.30;;;103.20;2227.20;;;;;;5031855;28;20052;-76
2023/02/13 08:04:48;;;;;;;;;;;128.00;2252.80;;;;;;5035370;28;20486;-78
2023/02/13 08:07:16;;;;;;;81.40;39.38;;;128.10;2252.80;;;;;;5038221;28;20274;-81
2023/02/13 08:12:31;;;;;;;70.60;37.55;;;128.20;2252.80;;;;;;5042120;28;20040;-83
2023/02/13 08:14:56;;;;;;;73.93;37.83;;;128.20;2252.80;;;;;;5031191;28;20036;-80
2023/02/13 08:17:22;;;;;;;;;;;128.30;2252.80;;;;;;5042389;28;20503;-80
2023/02/13 08:19:49;;;;;;;66.30;35.83;;;128.40;2252.80;;;;;;5059961;28;19944;-79
2023/02/13 08:22:14;;;;;;;;;;;128.50;2252.80;;;;;;5064990;28;20033;-81
2023/02/13 08:24:40;;;;;;;62.65;33.97;;;128.60;2252.80;;;;;;5050893;28;20794;-79
2023/02/13 08:27:06;;;;;;;;;;;128.60;2252.80;;;;;;5039919;28;20477;-78
2023/02/13 08:29:33;;;;;;;58.72;31.83;;;128.60;2252.80;;;;;;5053636;28;19905;-78
2023/02/13 08:31:59;;;;;;;69.30;35.60;;;128.60;2252.80;;;;;;5035189;28;20068;-79
2023/02/13 08:34:24;;;;;;;;;;;128.80;2252.80;;;;;;5055678;28;20557;-79
2023/02/13 08:36:50;;;;;;;67.75;33.85;;;128.90;2252.80;;;;;;5036314;28;20342;-79
2023/02/13 08:39:15;;;;;;;;;;;153.60;2252.80;;;;;;5063849;28;20031;-79
2023/02/13 08:41:42;;;;;;;78.75;37.47;;;153.60;2252.80;;;;;;5042204;28;19932;-79
2023/02/13 08:44:09;;;;;;;68.68;35.65;;;153.70;2252.80;;;;;;5051023;28;20021;-79
2023/02/13 08:46:35;;;;;;;69.07;34.35;;;153.80;2252.80;;;;;;5026558;28;20025;-78
2023/02/13 08:49:00;;;;;;;;;;;153.80;2252.80;;;;;;5049811;28;20094;-80
2023/02/13 08:51:26;;;;;;;69.05;35.15;;;153.90;2252.80;;;;;;5035479;28;19912;-79
2023/02/13 08:53:51;;;;;;;;;;;153.90;2252.80;;;;;;5047132;28;20028;-79
2023/02/13 08:56:17;;;;;;;70.20;33.33;;;153.90;2252.80;;;;;;5046870;28;19911;-78
2023/02/13 08:58:43;;;;;;;;;;;153.80;2252.80;;;;;;5052563;28;20025;-80
2023/02/13 09:01:08;;;;;;;86.93;45.13;;;154.00;2252.80;;;;;;5053751;28;20362;-78
2023/02/13 09:03:34;;;;;;;;;;;154.00;2252.80;;;;;;5052332;28;20025;-80
2023/02/13 09:06:01;;;;;;;96.57;44.60;;;154.20;2252.80;;;;;;5051993;28;19916;-77
2023/02/13 09:08:27;;;;;;;65.47;32.85;;;154.20;2252.80;;;;;;5051497;28;20047;-77
2023/02/13 09:10:57;;;;;;;;;;;154.20;2252.80;;;;;;5053318;28;20039;-77
2023/02/13 09:13:23;;;;;;;58.55;30.40;;;154.20;2252.80;;;;;;5022869;28;19927;-78
2023/02/13 09:15:48;;;;;;;;;;;154.30;2252.80;;;;;;5045186;28;20093;-77
2023/02/13 09:18:15;;;;;;;48.08;22.10;;;154.40;2252.80;;;;;;5051579;28;19919;-77
2023/02/13 09:20:40;;;;;;;46.35;23.90;;;154.50;2252.80;;;;;;5051377;28;20399;-76
2023/02/13 09:23:06;;;;;;;;;;;179.20;2252.80;;;;;;5052106;28;20055;-77
2023/02/13 09:25:31;;;;;;;46.35;23.45;;;179.40;2252.80;;;;;;5052429;28;20373;-78
2023/02/13 09:27:58;;;;;;;;;;;179.40;2252.80;;;;;;5053379;28;20462;-78
2023/02/13 09:30:24;;;;;;;35.85;17.33;;;179.60;2252.80;;;;;;5051797;28;19947;-80
2023/02/13 09:32:53;;;;;;;;;;;179.70;2252.80;;;;;;5052485;28;20079;-78
2023/02/13 09:35:19;;;;;;;40.17;20.90;;;179.90;2252.80;;;;;;5054243;28;19905;-78
2023/02/13 09:37:45;;;;;;;32.70;17.52;;;180.10;2252.80;;;;;;5055283;28;20029;-77
2023/02/13 09:40:17;;;;;;;;;;;204.80;2252.80;;;;;;5055634;28;20498;-77
2023/02/13 09:42:44;;;;;;;40.33;21.60;;;205.00;2252.80;;;;;;5056771;28;20003;-78
2023/02/13 09:45:12;;;;;;;31.00;16.08;;;205.20;2176.00;;;;;;5055138;28;20480;-78
2023/02/13 09:47:40;;;;;;;31.83;17.42;;;205.40;2073.60;;;;;;5049177;28;20040;-78
2023/02/13 09:50:12;;;;;;;33.08;16.73;;;205.60;2073.60;;;;;;5055280;28;20021;-77
2023/02/13 09:52:38;;;;;;;27.27;14.98;;;230.40;1996.80;;;;;;5055160;28;20068;-77
2023/02/13 09:55:17;;;;;;;26.73;14.05;;;230.60;1920.00;;;;;;5044275;28;20036;-76
2023/02/13 09:58:08;;;;;;;33.53;19.58;;;230.60;1868.80;;;;;;5041455;28;20024;-76
2023/02/13 10:00:47;;;;;;;26.52;16.73;;;230.70;1920.00;;;;;;4958891;28;20038;-77
2023/02/13 10:03:53;;;;;;;28.42;16.20;;;230.90;1945.60;;;;;;4975118;28;20509;-76
2023/02/13 10:06:31;;;;;;;30.27;15.80;;;230.80;1971.20;;;;;;4917711;29;20048;-77
2023/02/13 10:08:57;;;;;;;31.45;17.02;;;231.00;1894.40;;;;;;4917043;29;20048;-77
2023/02/13 10:12:23;;;;;;;29.73;16.63;;;231.20;1843.20;;;;;;4917698;29;20609;-78
2023/02/13 10:15:20;;;;;;;36.20;17.10;;;256.10;1843.20;;;;;;4865822;29;20041;-78
2023/02/13 10:17:53;;;;;;;30.48;18.02;;;256.50;1792.00;;;;;;4862516;29;20152;-77
2023/02/13 10:20:31;;;;;;;32.63;18.13;;;256.60;1792.00;;;;;;4856032;29;20037;-76
2023/02/13 10:23:16;;;;;;;31.25;18.42;;;256.80;1766.40;;;;;;4868611;29;20039;-77
2023/02/13 10:25:49;;;;;;;31.23;18.30;;;281.60;1766.40;;;;;;4851684;29;20089;-76
2023/02/13 10:28:41;;;;;;;32.38;16.55;;;281.90;1766.40;;;;;;4879709;29;20043;-76
2023/02/13 10:31:14;;;;;;;28.67;16.90;;;282.00;1715.20;;;;;;4871708;29;20037;-78
2023/02/13 10:33:45;;;;;;;28.52;16.85;;;282.20;1689.60;;;;;;4873413;29;20033;-82
2023/02/13 10:36:24;;;;;;;32.97;17.95;;;282.40;1664.00;;;;;;4870968;29;20041;-76
2023/02/13 10:39:04;;;;;;;36.22;18.73;;;307.30;1689.60;;;;;;4939178;29;20118;-76
2023/02/13 10:41:51;;;;;;;31.42;17.30;;;307.50;1664.00;;;;;;4956077;29;20528;-77
2023/02/13 10:44:33;;;;;;;24.85;14.48;;;307.60;1638.40;;;;;;4955738;28;20097;-77
2023/02/13 10:47:15;;;;;;;26.75;15.05;;;307.60;1612.80;;;;;;4939077;29;20454;-78
2023/02/13 10:50:14;;;;;;;26.23;16.40;;;307.50;1612.80;;;;;;4942586;28;20038;-78
2023/02/13 10:52:48;;;;;;;30.48;15.30;;;307.80;1561.60;;;;;;4958148;28;20038;-75
2023/02/13 10:55:27;;;;;;;33.95;16.92;;;308.00;1561.60;;;;;;4958260;28;20118;-76
2023/02/13 10:58:31;;;;;;;33.50;18.52;;;332.80;1587.20;;;;;;4973901;28;20164;-76
2023/02/13 11:01:12;;;;;;;29.38;16.35;;;333.10;1587.20;;;;;;4971102;28;20037;-76
2023/02/13 11:03:38;;;;;;;28.25;17.98;;;333.20;1536.00;;;;;;4947914;29;20158;-76
2023/02/13 11:06:11;;;;;;;26.70;15.63;;;333.40;1536.00;;;;;;4935990;29;20143;-77
2023/02/13 11:08:46;;;;;;;31.08;17.20;;;333.50;1510.40;;;;;;5026803;28;20033;-77
2023/02/13 11:11:37;;;;;;;30.95;18.10;;;333.50;1510.40;;;;;;5062650;28;20032;-77
2023/02/13 11:14:12;;;;;;;31.15;18.38;;;358.40;1484.80;;;;;;5057438;28;20202;-78
2023/02/13 11:16:47;;;;;;;28.73;17.63;;;358.50;1484.80;;;;;;5062588;28;20028;-78
2023/02/13 11:19:18;;;;;;;25.10;15.43;;;358.70;1459.20;;;;;;5035128;28;20021;-77
2023/02/13 11:21:47;;;;;;;26.80;16.13;;;358.60;1459.20;;;;;;5047707;28;20070;-78
2023/02/13 11:24:22;;;;;;;26.88;16.65;;;358.80;1433.60;;;;;;5056088;28;20060;-77
2023/02/13 11:26:59;;;;;;;29.80;15.93;;;358.90;1433.60;;;;;;5034946;28;20033;-75
2023/02/13 11:29:29;;;;;;;25.90;16.85;;;359.00;1408.00;;;;;;5039778;28;20053;-75
2023/02/13 11:32:02;;;;;;;26.92;16.60;;;358.90;1408.00;;;;;;5038129;28;20365;-76
2023/02/13 11:34:30;;;;;;;27.05;17.23;;;359.10;1408.00;;;;;;5030687;28;20124;-77
2023/02/13 11:37:11;;;;;;;31.70;18.23;;;359.10;1408.00;;;;;;5039635;28;20475;-75
2023/02/13 11:39:41;;;;;;;27.73;16.88;;;359.10;1408.00;;;;;;5026526;28;20032;-76
2023/02/13 11:42:15;;;;;;;32.63;17.92;;;359.00;1382.40;;;;;;5030740;28;20079;-76
2023/02/13 11:44:47;;;;;;;27.42;17.17;;;359.20;1382.40;;;;;;5053635;28;20414;-76
2023/02/13 11:47:14;;;;;;;28.08;16.25;;;359.30;1356.80;;;;;;5030918;28;20047;-76
2023/02/13 11:49:45;;;;;;;25.85;17.58;;;384.10;1356.80;;;;;;5038433;28;20105;-77
2023/02/13 11:52:37;;;;;;;31.95;18.52;;;384.00;1356.80;;;;;;5025130;28;20025;-77
2023/02/13 11:55:22;;;;;;;27.27;17.95;;;359.30;1382.40;;;;;;5018644;28;20035;-75
2023/02/13 11:58:27;;;;;;;29.08;18.75;;;384.00;1382.40;;;;;;5036275;28;20016;-76
2023/02/13 12:01:28;;;;;;;25.73;16.88;;;359.30;1382.40;;;;;;4974601;28;20030;-76
2023/02/13 12:04:02;;;;;;;25.73;16.05;;;384.00;1356.80;;;;;;4991698;28;20050;-76
2023/02/13 12:06:28;;;;;;;31.02;17.98;;;359.30;1382.40;;;;;;4975570;28;20121;-76
2023/02/13 12:08:54;;;;;;;27.15;16.63;;;359.30;1382.40;;;;;;4975834;28;20200;-77
2023/02/13 12:11:22;;;;;;;31.08;16.58;;;359.10;1382.40;;;;;;4975270;28;20038;-77
2023/02/13 12:13:50;;;;;;;30.83;16.83;;;359.20;1382.40;;;;;;4975624;28;20531;-76
2023/02/13 12:16:49;;;;;;;26.00;16.58;;;359.20;1382.40;;;;;;4975199;28;20046;-75
2023/02/13 12:19:27;;;;;;;26.65;15.38;;;359.20;1382.40;;;;;;4984337;28;20030;-75
2023/02/13 12:21:55;;;;;;;27.70;16.40;;;359.00;1382.40;;;;;;4977218;28;20031;-74
2023/02/13 12:24:48;;;;;;;26.23;16.50;;;359.20;1382.40;;;;;;4991230;28;20508;-75
2023/02/13 12:27:43;;;;;;;28.35;17.88;;;359.00;1382.40;;;;;;4989806;28;20057;-76
2023/02/13 12:30:24;;;;;;;32.03;17.27;;;359.10;1408.00;;;;;;4975267;28;20413;-75
2023/02/13 12:33:17;;;;;;;30.48;18.35;;;359.10;1382.40;;;;;;4991596;28;20077;-75
2023/02/13 12:36:09;;;;;;;27.17;16.80;;;359.00;1408.00;;;;;;4988774;28;20033;-76
2023/02/13 12:38:59;;;;;;;28.33;17.42;;;359.10;1382.40;;;;;;5048565;28;20025;-75
2023/02/13 12:41:31;;;;;;;31.05;17.17;;;359.00;1408.00;;;;;;5027976;28;20286;-75
2023/02/13 12:43:57;;;;;;;26.80;17.63;;;359.10;1408.00;;;;;;5055778;28;20043;-75
2023/02/13 12:46:33;;;;;;;27.08;16.75;;;358.90;1408.00;;;;;;5044708;28;20494;-75
2023/02/13 12:49:18;;;;;;;28.98;18.02;;;358.80;1408.00;;;;;;5063948;28;20533;-75
2023/02/13 12:51:52;;;;;;;29.67;18.00;;;358.70;1433.60;;;;;;5061127;28;20465;-75
2023/02/13 12:54:54;;;;;;;30.85;17.75;;;358.40;1484.80;;;;;;5064704;28;20503;-75
2023/02/13 12:57:45;;;;;;;31.02;17.45;;;358.40;1484.80;;;;;;5043002;28;20029;-74
2023/02/13 13:00:54;;;;;;;28.85;17.63;;;358.50;1484.80;;;;;;5063530;28;20025;-75
2023/02/13 13:03:42;;;;;;;33.53;20.92;;;358.50;1484.80;;;;;;4974320;28;20535;-74
2023/02/13 13:06:34;;;;;;;27.67;17.75;;;358.40;1484.80;;;;;;5006592;28;20088;-74
2023/02/13 13:09:24;;;;;;;33.55;18.63;;;333.70;1484.80;;;;;;4978679;28;20030;-75
2023/02/13 13:11:54;;;;;;;27.20;17.17;;;333.50;1510.40;;;;;;4980623;28;20130;-75
2023/02/13 13:14:22;;;;;;;33.13;19.23;;;333.30;1510.40;;;;;;5013286;28;20475;-75
2023/02/13 13:17:00;;;;;;;32.60;19.58;;;333.30;1510.40;;;;;;4980649;28;20045;-75
2023/02/13 13:19:55;;;;;;;30.52;17.50;;;333.30;1536.00;;;;;;5013379;28;20109;-82
2023/02/13 13:22:36;;;;;;;32.28;18.10;;;333.10;1536.00;;;;;;4958413;28;20617;-75
2023/02/13 13:25:19;;;;;;;28.10;17.88;;;333.00;1561.60;;;;;;4958321;28;20023;-75
2023/02/13 13:27:49;;;;;;;32.65;19.48;;;332.90;1561.60;;;;;;4958372;28;20078;-75
2023/02/13 13:30:21;;;;;;;36.97;21.83;;;332.80;1587.20;;;;;;4958171;28;20031;-75
2023/02/13 13:32:55;;;;;;;34.53;19.42;;;332.90;1587.20;;;;;;4958164;28;20035;-75